sensor_id;sensor_type;location;lat;lon;timestamp;P1;durP1;ratioP1;P2;durP2;ratioP2
21128;SDS011;10722;51.910;8.352;2023-03-24T00:01:51;13.48;;;3.17;;
21128;SDS011;10722;51.910;8.352;2023-03-24T00:04:37;12.15;;;3.20;;
21128;SDS011;10722;51.910;8.352;2023-03-24T00:07:22;9.70;;;2.90;;
21128;SDS011;10722;51.910;8.352;2023-03-24T00:10:10;10.63;;;3.03;;
21128;SDS011;10722;51.910;8.352;2023-03-24T00:12:57;11.13;;;3.25;;
21128;SDS011;10722;51.910;8.352;2023-03-24T00:15:43;9.65;;;2.88;;
21128;SDS011;10722;51.910;8.352;2023-03-24T00:18:28;10.98;;;3.10;;
21128;SDS011;10722;51.910;8.352;2023-03-24T00:21:13;9.25;;;2.88;;
21128;SDS011;10722;51.910;8.352;2023-03-24T00:23:59;10.87;;;2.73;;
21128;SDS011;10722;51.910;8.352;2023-03-24T00:26:44;9.50;;;3.07;;
21128;SDS011;10722;51.910;8.352;2023-03-24T00:29:30;11.10;;;2.85;;
21128;SDS011;10722;51.910;8.352;2023-03-24T00:32:15;10.85;;;2.90;;
21128;SDS011;10722;51.910;8.352;2023-03-24T00:35:02;9.25;;;3.00;;
21128;SDS011;10722;51.910;8.352;2023-03-24T00:37:48;11.98;;;3.20;;
21128;SDS011;10722;51.910;8.352;2023-03-24T00:40:33;9.45;;;2.90;;
21128;SDS011;10722;51.910;8.352;2023-03-24T00:43:19;12.43;;;3.03;;
21128;SDS011;10722;51.910;8.352;2023-03-24T00:46:05;10.13;;;3.05;;
21128;SDS011;10722;51.910;8.352;2023-03-24T00:48:53;9.50;;;2.88;;
21128;SDS011;10722;51.910;8.352;2023-03-24T00:51:40;8.90;;;2.83;;
21128;SDS011;10722;51.910;8.352;2023-03-24T00:54:27;7.13;;;2.85;;
21128;SDS011;10722;51.910;8.352;2023-03-24T00:57:12;10.25;;;3.20;;
21128;SDS011;10722;51.910;8.352;2023-03-24T01:00:00;10.85;;;2.85;;
21128;SDS011;10722;51.910;8.352;2023-03-24T01:02:48;10.90;;;2.83;;
21128;SDS011;10722;51.910;8.352;2023-03-24T01:05:35;9.77;;;3.00;;
21128;SDS011;10722;51.910;8.352;2023-03-24T01:08:21;7.78;;;2.83;;
21128;SDS011;10722;51.910;8.352;2023-03-24T01:11:06;11.40;;;3.28;;
21128;SDS011;10722;51.910;8.352;2023-03-24T01:13:52;10.23;;;2.85;;
21128;SDS011;10722;51.910;8.352;2023-03-24T01:16:38;9.35;;;2.90;;
21128;SDS011;10722;51.910;8.352;2023-03-24T01:19:23;8.98;;;2.90;;
21128;SDS011;10722;51.910;8.352;2023-03-24T01:22:08;10.40;;;2.63;;
21128;SDS011;10722;51.910;8.352;2023-03-24T01:24:54;8.13;;;2.88;;
21128;SDS011;10722;51.910;8.352;2023-03-24T01:27:40;7.15;;;2.60;;
21128;SDS011;10722;51.910;8.352;2023-03-24T01:30:26;10.00;;;2.83;;
21128;SDS011;10722;51.910;8.352;2023-03-24T01:33:12;8.60;;;2.67;;
21128;SDS011;10722;51.910;8.352;2023-03-24T01:35:57;9.07;;;2.83;;
21128;SDS011;10722;51.910;8.352;2023-03-24T01:38:43;9.07;;;2.60;;
21128;SDS011;10722;51.910;8.352;2023-03-24T01:41:33;6.70;;;2.53;;
21128;SDS011;10722;51.910;8.352;2023-03-24T01:47:11;11.05;;;2.90;;
21128;SDS011;10722;51.910;8.352;2023-03-24T01:49:57;9.80;;;2.53;;
21128;SDS011;10722;51.910;8.352;2023-03-24T01:52:45;7.28;;;2.90;;
21128;SDS011;10722;51.910;8.352;2023-03-24T01:55:31;8.52;;;2.60;;
21128;SDS011;10722;51.910;8.352;2023-03-24T01:58:16;8.48;;;2.58;;
21128;SDS011;10722;51.910;8.352;2023-03-24T02:01:02;8.20;;;2.63;;
21128;SDS011;10722;51.910;8.352;2023-03-24T02:03:48;8.32;;;2.40;;
21128;SDS011;10722;51.910;8.352;2023-03-24T02:06:34;7.60;;;2.65;;
21128;SDS011;10722;51.910;8.352;2023-03-24T02:09:21;8.80;;;2.83;;
21128;SDS011;10722;51.910;8.352;2023-03-24T02:12:07;9.95;;;2.80;;
21128;SDS011;10722;51.910;8.352;2023-03-24T02:14:52;8.80;;;2.97;;
21128;SDS011;10722;51.910;8.352;2023-03-24T02:26:55;7.88;;;2.90;;
21128;SDS011;10722;51.910;8.352;2023-03-24T02:30:06;9.90;;;3.17;;
21128;SDS011;10722;51.910;8.352;2023-03-24T02:42:35;9.10;;;3.10;;
21128;SDS011;10722;51.910;8.352;2023-03-24T02:45:35;9.88;;;3.55;;
21128;SDS011;10722;51.910;8.352;2023-03-24T02:54:58;10.23;;;3.70;;
21128;SDS011;10722;51.910;8.352;2023-03-24T02:57:55;10.83;;;3.50;;
21128;SDS011;10722;51.910;8.352;2023-03-24T03:03:43;8.57;;;3.50;;
21128;SDS011;10722;51.910;8.352;2023-03-24T03:06:34;8.90;;;3.55;;
21128;SDS011;10722;51.910;8.352;2023-03-24T03:09:22;10.68;;;3.63;;
21128;SDS011;10722;51.910;8.352;2023-03-24T03:12:09;10.05;;;3.70;;
21128;SDS011;10722;51.910;8.352;2023-03-24T03:14:58;13.48;;;3.97;;
21128;SDS011;10722;51.910;8.352;2023-03-24T03:17:55;12.05;;;4.15;;
21128;SDS011;10722;51.910;8.352;2023-03-24T03:20:47;11.50;;;4.10;;
21128;SDS011;10722;51.910;8.352;2023-03-24T03:23:44;11.37;;;4.00;;
21128;SDS011;10722;51.910;8.352;2023-03-24T03:26:40;13.90;;;4.40;;
21128;SDS011;10722;51.910;8.352;2023-03-24T03:29:30;12.87;;;4.60;;
21128;SDS011;10722;51.910;8.352;2023-03-24T03:32:21;11.52;;;4.18;;
21128;SDS011;10722;51.910;8.352;2023-03-24T03:35:15;11.32;;;4.53;;
21128;SDS011;10722;51.910;8.352;2023-03-24T03:38:21;11.73;;;4.40;;
21128;SDS011;10722;51.910;8.352;2023-03-24T03:41:12;11.40;;;4.03;;
21128;SDS011;10722;51.910;8.352;2023-03-24T03:44:00;10.60;;;4.43;;
21128;SDS011;10722;51.910;8.352;2023-03-24T03:46:46;11.32;;;4.53;;
21128;SDS011;10722;51.910;8.352;2023-03-24T03:49:31;12.63;;;4.40;;
21128;SDS011;10722;51.910;8.352;2023-03-24T03:52:16;10.55;;;4.28;;
21128;SDS011;10722;51.910;8.352;2023-03-24T03:55:03;11.30;;;4.55;;
21128;SDS011;10722;51.910;8.352;2023-03-24T03:57:49;12.00;;;4.50;;
21128;SDS011;10722;51.910;8.352;2023-03-24T04:00:34;14.17;;;4.83;;
21128;SDS011;10722;51.910;8.352;2023-03-24T04:03:25;11.52;;;4.28;;
21128;SDS011;10722;51.910;8.352;2023-03-24T04:06:38;10.27;;;4.27;;
21128;SDS011;10722;51.910;8.352;2023-03-24T04:24:30;9.50;;;3.10;;
21128;SDS011;10722;51.910;8.352;2023-03-24T04:27:44;10.35;;;3.70;;
21128;SDS011;10722;51.910;8.352;2023-03-24T04:33:32;8.48;;;3.33;;
21128;SDS011;10722;51.910;8.352;2023-03-24T04:36:26;11.43;;;3.63;;
21128;SDS011;10722;51.910;8.352;2023-03-24T04:39:16;8.60;;;3.42;;
21128;SDS011;10722;51.910;8.352;2023-03-24T04:42:10;8.65;;;3.50;;
21128;SDS011;10722;51.910;8.352;2023-03-24T04:45:03;8.57;;;3.30;;
21128;SDS011;10722;51.910;8.352;2023-03-24T04:47:51;8.38;;;3.22;;
21128;SDS011;10722;51.910;8.352;2023-03-24T04:50:41;8.52;;;3.20;;
21128;SDS011;10722;51.910;8.352;2023-03-24T04:53:28;10.50;;;3.28;;
21128;SDS011;10722;51.910;8.352;2023-03-24T04:56:27;9.55;;;3.25;;
21128;SDS011;10722;51.910;8.352;2023-03-24T04:59:14;8.30;;;3.25;;
21128;SDS011;10722;51.910;8.352;2023-03-24T05:02:00;8.02;;;3.15;;
21128;SDS011;10722;51.910;8.352;2023-03-24T05:04:46;9.68;;;3.33;;
21128;SDS011;10722;51.910;8.352;2023-03-24T05:07:31;8.13;;;2.88;;
21128;SDS011;10722;51.910;8.352;2023-03-24T05:10:16;9.00;;;3.40;;
21128;SDS011;10722;51.910;8.352;2023-03-24T05:13:05;8.80;;;3.42;;
21128;SDS011;10722;51.910;8.352;2023-03-24T05:15:51;8.88;;;3.30;;
21128;SDS011;10722;51.910;8.352;2023-03-24T05:18:38;10.00;;;3.70;;
21128;SDS011;10722;51.910;8.352;2023-03-24T05:21:24;11.45;;;3.88;;
21128;SDS011;10722;51.910;8.352;2023-03-24T05:24:09;9.10;;;3.88;;
21128;SDS011;10722;51.910;8.352;2023-03-24T05:26:55;9.45;;;3.85;;
21128;SDS011;10722;51.910;8.352;2023-03-24T05:29:40;11.80;;;4.00;;
21128;SDS011;10722;51.910;8.352;2023-03-24T05:32:25;9.95;;;4.05;;
21128;SDS011;10722;51.910;8.352;2023-03-24T05:35:10;11.75;;;4.20;;
21128;SDS011;10722;51.910;8.352;2023-03-24T05:37:56;9.60;;;3.63;;
21128;SDS011;10722;51.910;8.352;2023-03-24T05:40:41;10.13;;;3.70;;
21128;SDS011;10722;51.910;8.352;2023-03-24T05:43:26;10.57;;;3.65;;
21128;SDS011;10722;51.910;8.352;2023-03-24T05:46:12;9.90;;;3.03;;
21128;SDS011;10722;51.910;8.352;2023-03-24T05:48:57;8.82;;;3.30;;
21128;SDS011;10722;51.910;8.352;2023-03-24T05:51:43;8.38;;;3.42;;
21128;SDS011;10722;51.910;8.352;2023-03-24T05:54:28;8.75;;;3.40;;
21128;SDS011;10722;51.910;8.352;2023-03-24T05:57:14;7.82;;;3.40;;
21128;SDS011;10722;51.910;8.352;2023-03-24T06:00:00;8.75;;;3.40;;
21128;SDS011;10722;51.910;8.352;2023-03-24T06:02:46;9.98;;;3.08;;
21128;SDS011;10722;51.910;8.352;2023-03-24T06:05:31;6.88;;;2.83;;
21128;SDS011;10722;51.910;8.352;2023-03-24T06:08:16;8.82;;;3.60;;
21128;SDS011;10722;51.910;8.352;2023-03-24T06:11:02;10.75;;;4.20;;
21128;SDS011;10722;51.910;8.352;2023-03-24T06:13:47;9.50;;;4.50;;
21128;SDS011;10722;51.910;8.352;2023-03-24T06:16:33;10.75;;;4.60;;
21128;SDS011;10722;51.910;8.352;2023-03-24T06:19:18;9.68;;;4.63;;
21128;SDS011;10722;51.910;8.352;2023-03-24T06:22:04;10.27;;;4.75;;
21128;SDS011;10722;51.910;8.352;2023-03-24T06:24:49;10.35;;;4.80;;
21128;SDS011;10722;51.910;8.352;2023-03-24T06:27:34;10.85;;;5.07;;
21128;SDS011;10722;51.910;8.352;2023-03-24T06:30:20;9.95;;;2.90;;
21128;SDS011;10722;51.910;8.352;2023-03-24T06:33:05;9.52;;;1.90;;
21128;SDS011;10722;51.910;8.352;2023-03-24T06:35:52;4.22;;;1.50;;
21128;SDS011;10722;51.910;8.352;2023-03-24T06:38:38;6.82;;;1.40;;
21128;SDS011;10722;51.910;8.352;2023-03-24T06:41:24;6.50;;;1.30;;
21128;SDS011;10722;51.910;8.352;2023-03-24T06:44:09;7.28;;;1.45;;
21128;SDS011;10722;51.910;8.352;2023-03-24T06:46:55;9.13;;;1.70;;
21128;SDS011;10722;51.910;8.352;2023-03-24T06:49:40;6.07;;;1.60;;
21128;SDS011;10722;51.910;8.352;2023-03-24T06:52:25;7.00;;;1.67;;
21128;SDS011;10722;51.910;8.352;2023-03-24T06:55:11;15.65;;;6.07;;
21128;SDS011;10722;51.910;8.352;2023-03-24T06:57:56;11.77;;;3.47;;
21128;SDS011;10722;51.910;8.352;2023-03-24T07:00:42;7.60;;;2.17;;
21128;SDS011;10722;51.910;8.352;2023-03-24T07:03:28;11.93;;;2.47;;
21128;SDS011;10722;51.910;8.352;2023-03-24T07:06:13;8.32;;;2.30;;
21128;SDS011;10722;51.910;8.352;2023-03-24T07:08:59;9.57;;;2.50;;
21128;SDS011;10722;51.910;8.352;2023-03-24T07:11:44;11.20;;;2.60;;
21128;SDS011;10722;51.910;8.352;2023-03-24T07:14:30;12.45;;;2.70;;
21128;SDS011;10722;51.910;8.352;2023-03-24T07:17:15;14.60;;;3.47;;
21128;SDS011;10722;51.910;8.352;2023-03-24T07:20:00;10.27;;;3.13;;
21128;SDS011;10722;51.910;8.352;2023-03-24T07:22:46;13.25;;;3.10;;
21128;SDS011;10722;51.910;8.352;2023-03-24T07:25:32;10.35;;;3.35;;
21128;SDS011;10722;51.910;8.352;2023-03-24T07:28:17;14.93;;;3.92;;
21128;SDS011;10722;51.910;8.352;2023-03-24T07:31:04;11.27;;;3.20;;
21128;SDS011;10722;51.910;8.352;2023-03-24T07:33:49;15.55;;;3.92;;
21128;SDS011;10722;51.910;8.352;2023-03-24T07:36:35;14.55;;;3.70;;
21128;SDS011;10722;51.910;8.352;2023-03-24T07:39:20;12.50;;;4.03;;
21128;SDS011;10722;51.910;8.352;2023-03-24T07:42:05;13.82;;;3.72;;
21128;SDS011;10722;51.910;8.352;2023-03-24T07:44:51;15.10;;;3.67;;
21128;SDS011;10722;51.910;8.352;2023-03-24T07:47:36;17.25;;;4.25;;
21128;SDS011;10722;51.910;8.352;2023-03-24T07:50:22;18.10;;;4.72;;
21128;SDS011;10722;51.910;8.352;2023-03-24T07:53:07;19.95;;;5.13;;
21128;SDS011;10722;51.910;8.352;2023-03-24T07:55:53;19.67;;;5.10;;
21128;SDS011;10722;51.910;8.352;2023-03-24T07:58:38;17.70;;;4.88;;
21128;SDS011;10722;51.910;8.352;2023-03-24T08:01:24;21.25;;;5.68;;
21128;SDS011;10722;51.910;8.352;2023-03-24T08:04:12;17.25;;;4.68;;
21128;SDS011;10722;51.910;8.352;2023-03-24T08:06:57;17.85;;;5.10;;
21128;SDS011;10722;51.910;8.352;2023-03-24T08:09:43;19.60;;;4.85;;
21128;SDS011;10722;51.910;8.352;2023-03-24T08:12:28;16.80;;;4.57;;
21128;SDS011;10722;51.910;8.352;2023-03-24T08:15:14;19.92;;;4.68;;
21128;SDS011;10722;51.910;8.352;2023-03-24T08:17:59;18.38;;;4.65;;
21128;SDS011;10722;51.910;8.352;2023-03-24T08:20:44;15.10;;;3.83;;
21128;SDS011;10722;51.910;8.352;2023-03-24T08:23:30;15.95;;;3.78;;
21128;SDS011;10722;51.910;8.352;2023-03-24T08:26:15;15.30;;;3.38;;
21128;SDS011;10722;51.910;8.352;2023-03-24T08:29:01;15.07;;;3.60;;
21128;SDS011;10722;51.910;8.352;2023-03-24T08:31:47;16.30;;;3.83;;
21128;SDS011;10722;51.910;8.352;2023-03-24T08:34:32;17.52;;;4.00;;
21128;SDS011;10722;51.910;8.352;2023-03-24T08:37:17;15.65;;;3.72;;
21128;SDS011;10722;51.910;8.352;2023-03-24T08:40:03;16.08;;;3.55;;
21128;SDS011;10722;51.910;8.352;2023-03-24T08:42:49;19.40;;;3.88;;
21128;SDS011;10722;51.910;8.352;2023-03-24T08:45:40;18.25;;;4.05;;
21128;SDS011;10722;51.910;8.352;2023-03-24T08:48:26;13.00;;;3.67;;
21128;SDS011;10722;51.910;8.352;2023-03-24T08:51:13;16.48;;;3.67;;
21128;SDS011;10722;51.910;8.352;2023-03-24T08:54:00;16.08;;;3.45;;
21128;SDS011;10722;51.910;8.352;2023-03-24T08:56:45;15.68;;;3.83;;
21128;SDS011;10722;51.910;8.352;2023-03-24T08:59:31;13.43;;;3.05;;
21128;SDS011;10722;51.910;8.352;2023-03-24T09:02:17;17.73;;;3.90;;
21128;SDS011;10722;51.910;8.352;2023-03-24T09:05:03;13.93;;;3.40;;
21128;SDS011;10722;51.910;8.352;2023-03-24T09:07:48;14.88;;;3.20;;
21128;SDS011;10722;51.910;8.352;2023-03-24T09:10:34;16.65;;;3.50;;
21128;SDS011;10722;51.910;8.352;2023-03-24T09:13:20;18.92;;;3.63;;
21128;SDS011;10722;51.910;8.352;2023-03-24T09:16:06;14.13;;;3.40;;
21128;SDS011;10722;51.910;8.352;2023-03-24T09:18:51;13.43;;;3.90;;
21128;SDS011;10722;51.910;8.352;2023-03-24T09:21:36;12.45;;;3.92;;
21128;SDS011;10722;51.910;8.352;2023-03-24T09:24:22;15.07;;;3.80;;
21128;SDS011;10722;51.910;8.352;2023-03-24T09:27:07;17.10;;;3.92;;
21128;SDS011;10722;51.910;8.352;2023-03-24T09:29:52;15.82;;;4.07;;
21128;SDS011;10722;51.910;8.352;2023-03-24T09:32:37;18.02;;;4.57;;
21128;SDS011;10722;51.910;8.352;2023-03-24T09:35:23;13.63;;;3.90;;
21128;SDS011;10722;51.910;8.352;2023-03-24T09:38:09;17.13;;;4.57;;
21128;SDS011;10722;51.910;8.352;2023-03-24T09:40:55;14.93;;;4.38;;
21128;SDS011;10722;51.910;8.352;2023-03-24T09:44:05;14.02;;;4.45;;
21128;SDS011;10722;51.910;8.352;2023-03-24T09:47:15;18.35;;;3.90;;
21128;SDS011;10722;51.910;8.352;2023-03-24T09:50:17;14.82;;;4.10;;
21128;SDS011;10722;51.910;8.352;2023-03-24T09:53:08;16.45;;;3.92;;
21128;SDS011;10722;51.910;8.352;2023-03-24T09:56:12;14.85;;;3.97;;
21128;SDS011;10722;51.910;8.352;2023-03-24T09:59:02;19.15;;;4.32;;
21128;SDS011;10722;51.910;8.352;2023-03-24T10:01:50;16.75;;;3.80;;
21128;SDS011;10722;51.910;8.352;2023-03-24T10:04:35;15.68;;;3.70;;
21128;SDS011;10722;51.910;8.352;2023-03-24T10:07:23;15.52;;;3.53;;
21128;SDS011;10722;51.910;8.352;2023-03-24T10:32:11;18.08;;;3.58;;
21128;SDS011;10722;51.910;8.352;2023-03-24T10:35:01;16.92;;;3.60;;
21128;SDS011;10722;51.910;8.352;2023-03-24T10:37:51;16.40;;;3.45;;
21128;SDS011;10722;51.910;8.352;2023-03-24T10:40:38;12.93;;;3.00;;
21128;SDS011;10722;51.910;8.352;2023-03-24T10:43:24;15.32;;;3.28;;
21128;SDS011;10722;51.910;8.352;2023-03-24T10:46:11;15.82;;;3.25;;
21128;SDS011;10722;51.910;8.352;2023-03-24T10:49:07;15.90;;;2.97;;
21128;SDS011;10722;51.910;8.352;2023-03-24T10:52:00;17.15;;;3.30;;
21128;SDS011;10722;51.910;8.352;2023-03-24T10:54:54;16.98;;;3.25;;
21128;SDS011;10722;51.910;8.352;2023-03-24T10:57:48;21.90;;;3.00;;
21128;SDS011;10722;51.910;8.352;2023-03-24T11:00:36;16.83;;;3.08;;
21128;SDS011;10722;51.910;8.352;2023-03-24T11:03:26;12.65;;;2.85;;
21128;SDS011;10722;51.910;8.352;2023-03-24T11:06:15;15.30;;;3.13;;
21128;SDS011;10722;51.910;8.352;2023-03-24T11:09:08;14.70;;;3.17;;
21128;SDS011;10722;51.910;8.352;2023-03-24T11:12:03;15.90;;;2.83;;
21128;SDS011;10722;51.910;8.352;2023-03-24T11:14:49;13.80;;;2.90;;
21128;SDS011;10722;51.910;8.352;2023-03-24T11:17:34;13.60;;;2.75;;
21128;SDS011;10722;51.910;8.352;2023-03-24T11:20:28;15.75;;;3.30;;
21128;SDS011;10722;51.910;8.352;2023-03-24T11:26:27;14.85;;;3.20;;
21128;SDS011;10722;51.910;8.352;2023-03-24T11:29:19;15.60;;;3.30;;
21128;SDS011;10722;51.910;8.352;2023-03-24T11:32:10;13.57;;;3.17;;
21128;SDS011;10722;51.910;8.352;2023-03-24T11:35:07;13.00;;;2.88;;
21128;SDS011;10722;51.910;8.352;2023-03-24T11:38:03;14.02;;;3.17;;
21128;SDS011;10722;51.910;8.352;2023-03-24T11:40:54;16.00;;;3.10;;
21128;SDS011;10722;51.910;8.352;2023-03-24T11:43:41;15.23;;;3.00;;
21128;SDS011;10722;51.910;8.352;2023-03-24T11:46:30;11.50;;;2.78;;
21128;SDS011;10722;51.910;8.352;2023-03-24T11:49:17;14.70;;;3.00;;
21128;SDS011;10722;51.910;8.352;2023-03-24T11:52:07;13.60;;;3.10;;
21128;SDS011;10722;51.910;8.352;2023-03-24T11:55:02;16.23;;;3.30;;
21128;SDS011;10722;51.910;8.352;2023-03-24T11:57:59;15.38;;;3.50;;
21128;SDS011;10722;51.910;8.352;2023-03-24T12:01:09;17.00;;;3.35;;
21128;SDS011;10722;51.910;8.352;2023-03-24T12:11:02;16.23;;;3.05;;
21128;SDS011;10722;51.910;8.352;2023-03-24T12:14:03;16.30;;;2.55;;
21128;SDS011;10722;51.910;8.352;2023-03-24T12:16:51;36.88;;;19.67;;
21128;SDS011;10722;51.910;8.352;2023-03-24T12:22:45;14.25;;;2.67;;
21128;SDS011;10722;51.910;8.352;2023-03-24T12:49:55;17.00;;;3.35;;
21128;SDS011;10722;51.910;8.352;2023-03-24T12:55:57;13.48;;;2.65;;
21128;SDS011;10722;51.910;8.352;2023-03-24T12:58:49;14.63;;;2.70;;
21128;SDS011;10722;51.910;8.352;2023-03-24T13:01:50;18.00;;;3.10;;
21128;SDS011;10722;51.910;8.352;2023-03-24T13:04:39;15.20;;;2.88;;
21128;SDS011;10722;51.910;8.352;2023-03-24T13:07:28;13.80;;;2.40;;
21128;SDS011;10722;51.910;8.352;2023-03-24T13:13:16;14.68;;;2.53;;
21128;SDS011;10722;51.910;8.352;2023-03-24T13:16:07;11.40;;;2.50;;
21128;SDS011;10722;51.910;8.352;2023-03-24T13:18:57;12.82;;;2.40;;
21128;SDS011;10722;51.910;8.352;2023-03-24T13:21:44;12.75;;;2.67;;
21128;SDS011;10722;51.910;8.352;2023-03-24T13:24:30;12.10;;;2.20;;
21128;SDS011;10722;51.910;8.352;2023-03-24T13:30:33;12.27;;;2.30;;
21128;SDS011;10722;51.910;8.352;2023-03-24T13:33:22;13.23;;;2.08;;
21128;SDS011;10722;51.910;8.352;2023-03-24T13:39:26;14.18;;;2.47;;
21128;SDS011;10722;51.910;8.352;2023-03-24T13:48:38;13.57;;;2.58;;
21128;SDS011;10722;51.910;8.352;2023-03-24T13:51:29;8.82;;;2.20;;
21128;SDS011;10722;51.910;8.352;2023-03-24T13:54:25;13.15;;;2.33;;
21128;SDS011;10722;51.910;8.352;2023-03-24T13:57:16;12.18;;;2.20;;
21128;SDS011;10722;51.910;8.352;2023-03-24T14:00:19;12.20;;;2.60;;
21128;SDS011;10722;51.910;8.352;2023-03-24T14:03:13;11.05;;;2.30;;
21128;SDS011;10722;51.910;8.352;2023-03-24T14:06:22;10.30;;;2.22;;
21128;SDS011;10722;51.910;8.352;2023-03-24T14:09:29;11.77;;;2.38;;
21128;SDS011;10722;51.910;8.352;2023-03-24T14:12:15;12.70;;;2.10;;
21128;SDS011;10722;51.910;8.352;2023-03-24T14:17:52;15.43;;;2.60;;
21128;SDS011;10722;51.910;8.352;2023-03-24T14:20:41;15.10;;;2.40;;
21128;SDS011;10722;51.910;8.352;2023-03-24T14:23:47;11.40;;;2.25;;
21128;SDS011;10722;51.910;8.352;2023-03-24T14:26:33;13.98;;;2.60;;
21128;SDS011;10722;51.910;8.352;2023-03-24T14:29:46;12.30;;;2.72;;
21128;SDS011;10722;51.910;8.352;2023-03-24T14:32:35;12.38;;;2.25;;
21128;SDS011;10722;51.910;8.352;2023-03-24T14:38:21;11.32;;;2.47;;
21128;SDS011;10722;51.910;8.352;2023-03-24T14:41:13;12.25;;;2.60;;
21128;SDS011;10722;51.910;8.352;2023-03-24T14:44:00;13.60;;;2.75;;
21128;SDS011;10722;51.910;8.352;2023-03-24T14:46:45;13.07;;;2.60;;
21128;SDS011;10722;51.910;8.352;2023-03-24T14:49:32;10.27;;;2.17;;
21128;SDS011;10722;51.910;8.352;2023-03-24T14:52:19;14.32;;;2.50;;
21128;SDS011;10722;51.910;8.352;2023-03-24T14:55:26;12.63;;;2.70;;
21128;SDS011;10722;51.910;8.352;2023-03-24T14:58:20;14.80;;;2.63;;
21128;SDS011;10722;51.910;8.352;2023-03-24T15:01:18;13.93;;;2.55;;
21128;SDS011;10722;51.910;8.352;2023-03-24T15:04:06;12.32;;;2.20;;
21128;SDS011;10722;51.910;8.352;2023-03-24T15:06:52;15.25;;;2.55;;
21128;SDS011;10722;51.910;8.352;2023-03-24T15:09:37;11.13;;;2.00;;
21128;SDS011;10722;51.910;8.352;2023-03-24T15:12:32;15.55;;;2.72;;
21128;SDS011;10722;51.910;8.352;2023-03-24T15:15:19;10.70;;;2.40;;
21128;SDS011;10722;51.910;8.352;2023-03-24T15:18:13;8.63;;;1.60;;
21128;SDS011;10722;51.910;8.352;2023-03-24T15:21:12;6.53;;;1.80;;
21128;SDS011;10722;51.910;8.352;2023-03-24T15:27:13;3.95;;;1.25;;
21128;SDS011;10722;51.910;8.352;2023-03-24T15:30:02;6.90;;;1.35;;
21128;SDS011;10722;51.910;8.352;2023-03-24T15:32:50;28.33;;;13.68;;
21128;SDS011;10722;51.910;8.352;2023-03-24T15:35:35;5.93;;;1.43;;
21128;SDS011;10722;51.910;8.352;2023-03-24T15:38:28;4.80;;;1.23;;
21128;SDS011;10722;51.910;8.352;2023-03-24T15:41:15;1.90;;;1.05;;
21128;SDS011;10722;51.910;8.352;2023-03-24T15:44:06;5.75;;;1.40;;
21128;SDS011;10722;51.910;8.352;2023-03-24T15:46:54;5.07;;;1.40;;
21128;SDS011;10722;51.910;8.352;2023-03-24T15:49:46;3.03;;;1.40;;
21128;SDS011;10722;51.910;8.352;2023-03-24T15:52:35;3.17;;;1.13;;
21128;SDS011;10722;51.910;8.352;2023-03-24T15:55:26;7.53;;;1.50;;
21128;SDS011;10722;51.910;8.352;2023-03-24T15:58:27;4.53;;;1.40;;
21128;SDS011;10722;51.910;8.352;2023-03-24T16:01:14;4.70;;;1.33;;
21128;SDS011;10722;51.910;8.352;2023-03-24T16:04:05;5.75;;;1.30;;
21128;SDS011;10722;51.910;8.352;2023-03-24T16:06:56;3.97;;;1.30;;
21128;SDS011;10722;51.910;8.352;2023-03-24T16:09:42;6.10;;;1.40;;
21128;SDS011;10722;51.910;8.352;2023-03-24T16:12:27;6.93;;;1.60;;
21128;SDS011;10722;51.910;8.352;2023-03-24T16:15:12;5.10;;;1.43;;
21128;SDS011;10722;51.910;8.352;2023-03-24T16:17:57;6.07;;;1.90;;
21128;SDS011;10722;51.910;8.352;2023-03-24T16:20:43;5.30;;;1.70;;
21128;SDS011;10722;51.910;8.352;2023-03-24T16:23:29;6.67;;;1.60;;
21128;SDS011;10722;51.910;8.352;2023-03-24T16:26:19;6.70;;;1.87;;
21128;SDS011;10722;51.910;8.352;2023-03-24T16:31:56;8.13;;;2.10;;
21128;SDS011;10722;51.910;8.352;2023-03-24T16:34:41;7.80;;;2.00;;
21128;SDS011;10722;51.910;8.352;2023-03-24T16:37:27;6.60;;;1.90;;
21128;SDS011;10722;51.910;8.352;2023-03-24T16:40:19;10.40;;;2.10;;
21128;SDS011;10722;51.910;8.352;2023-03-24T16:43:14;7.27;;;2.13;;
21128;SDS011;10722;51.910;8.352;2023-03-24T16:45:59;6.60;;;1.90;;
21128;SDS011;10722;51.910;8.352;2023-03-24T16:48:46;7.37;;;2.30;;
21128;SDS011;10722;51.910;8.352;2023-03-24T16:51:31;8.87;;;2.40;;
21128;SDS011;10722;51.910;8.352;2023-03-24T16:54:17;5.77;;;1.77;;
21128;SDS011;10722;51.910;8.352;2023-03-24T16:57:02;8.23;;;2.20;;
21128;SDS011;10722;51.910;8.352;2023-03-24T16:59:47;8.33;;;2.20;;
21128;SDS011;10722;51.910;8.352;2023-03-24T17:02:32;10.50;;;2.40;;
21128;SDS011;10722;51.910;8.352;2023-03-24T17:05:29;10.47;;;2.23;;
21128;SDS011;10722;51.910;8.352;2023-03-24T17:08:18;5.97;;;1.87;;
21128;SDS011;10722;51.910;8.352;2023-03-24T17:11:03;8.67;;;2.00;;
21128;SDS011;10722;51.910;8.352;2023-03-24T17:13:49;7.13;;;1.87;;
21128;SDS011;10722;51.910;8.352;2023-03-24T17:16:35;6.87;;;2.10;;
21128;SDS011;10722;51.910;8.352;2023-03-24T17:19:22;8.43;;;2.20;;
21128;SDS011;10722;51.910;8.352;2023-03-24T17:22:07;7.93;;;2.33;;
21128;SDS011;10722;51.910;8.352;2023-03-24T17:24:52;10.10;;;2.70;;
21128;SDS011;10722;51.910;8.352;2023-03-24T17:27:38;9.63;;;2.77;;
21128;SDS011;10722;51.910;8.352;2023-03-24T17:30:24;10.20;;;2.53;;
21128;SDS011;10722;51.910;8.352;2023-03-24T17:33:11;10.47;;;2.73;;
21128;SDS011;10722;51.910;8.352;2023-03-24T17:35:58;12.33;;;2.77;;
21128;SDS011;10722;51.910;8.352;2023-03-24T17:38:43;14.53;;;3.30;;
21128;SDS011;10722;51.910;8.352;2023-03-24T17:41:29;10.57;;;3.00;;
21128;SDS011;10722;51.910;8.352;2023-03-24T17:44:14;13.37;;;2.90;;
21128;SDS011;10722;51.910;8.352;2023-03-24T17:47:00;12.60;;;3.30;;
21128;SDS011;10722;51.910;8.352;2023-03-24T17:49:45;10.97;;;3.23;;
21128;SDS011;10722;51.910;8.352;2023-03-24T17:52:30;10.53;;;2.73;;
21128;SDS011;10722;51.910;8.352;2023-03-24T17:55:15;11.17;;;2.83;;
21128;SDS011;10722;51.910;8.352;2023-03-24T17:58:01;10.47;;;2.90;;
21128;SDS011;10722;51.910;8.352;2023-03-24T18:00:47;11.50;;;3.27;;
21128;SDS011;10722;51.910;8.352;2023-03-24T18:03:33;11.97;;;3.90;;
21128;SDS011;10722;51.910;8.352;2023-03-24T18:06:19;12.37;;;2.87;;
21128;SDS011;10722;51.910;8.352;2023-03-24T18:09:04;11.53;;;3.27;;
21128;SDS011;10722;51.910;8.352;2023-03-24T18:11:50;13.03;;;3.10;;
21128;SDS011;10722;51.910;8.352;2023-03-24T18:14:35;14.10;;;3.10;;
21128;SDS011;10722;51.910;8.352;2023-03-24T18:17:21;12.43;;;3.27;;
21128;SDS011;10722;51.910;8.352;2023-03-24T18:20:07;13.90;;;3.27;;
21128;SDS011;10722;51.910;8.352;2023-03-24T18:22:53;12.97;;;3.23;;
21128;SDS011;10722;51.910;8.352;2023-03-24T18:25:38;14.37;;;3.07;;
21128;SDS011;10722;51.910;8.352;2023-03-24T18:28:23;12.87;;;3.37;;
21128;SDS011;10722;51.910;8.352;2023-03-24T18:31:09;11.63;;;2.90;;
21128;SDS011;10722;51.910;8.352;2023-03-24T18:33:59;11.30;;;2.80;;
21128;SDS011;10722;51.910;8.352;2023-03-24T18:36:45;10.03;;;2.73;;
21128;SDS011;10722;51.910;8.352;2023-03-24T18:39:30;10.77;;;2.57;;
21128;SDS011;10722;51.910;8.352;2023-03-24T18:42:15;7.93;;;2.40;;
21128;SDS011;10722;51.910;8.352;2023-03-24T18:45:00;9.67;;;2.70;;
21128;SDS011;10722;51.910;8.352;2023-03-24T18:47:45;10.40;;;2.20;;
21128;SDS011;10722;51.910;8.352;2023-03-24T18:50:31;9.60;;;2.27;;
21128;SDS011;10722;51.910;8.352;2023-03-24T18:53:19;7.60;;;1.80;;
21128;SDS011;10722;51.910;8.352;2023-03-24T18:56:05;5.30;;;1.80;;
21128;SDS011;10722;51.910;8.352;2023-03-24T18:58:52;7.27;;;2.00;;
21128;SDS011;10722;51.910;8.352;2023-03-24T19:01:37;7.87;;;1.83;;
21128;SDS011;10722;51.910;8.352;2023-03-24T19:04:22;9.17;;;1.97;;